createdAt,value
2018-08-28T00:02:13.745Z,3.00
2018-08-28T00:04:42.794Z,3.33
2018-08-28T00:07:12.009Z,3.30
2018-08-28T00:09:41.381Z,3.22
2018-08-28T00:12:10.028Z,3.45
2018-08-28T00:14:38.765Z,3.30
2018-08-28T00:17:07.684Z,3.02
2018-08-28T00:19:36.328Z,3.60
2018-08-28T00:22:05.513Z,3.65
2018-08-28T00:24:34.322Z,3.50
2018-08-28T00:27:03.010Z,3.22
2018-08-28T00:29:31.698Z,3.40
2018-08-28T00:32:01.395Z,3.80
2018-08-28T00:34:29.991Z,3.87
2018-08-28T00:36:58.585Z,3.42
2018-08-28T00:39:27.655Z,3.50
2018-08-28T00:41:56.281Z,3.58
2018-08-28T00:44:25.635Z,3.35
2018-08-28T00:46:54.340Z,3.52
2018-08-28T00:49:23.245Z,3.45
2018-08-28T00:51:52.544Z,3.77
2018-08-28T00:54:21.187Z,3.60
2018-08-28T00:56:49.785Z,3.55
2018-08-28T00:59:19.010Z,3.40
2018-08-28T01:01:47.902Z,3.35
2018-08-28T01:04:16.578Z,3.30
2018-08-28T01:06:45.142Z,3.47
2018-08-28T01:09:13.939Z,3.30
2018-08-28T01:11:42.603Z,3.58
2018-08-28T01:14:11.725Z,3.40
2018-08-28T01:16:40.507Z,3.08
2018-08-28T01:19:09.396Z,3.37
2018-08-28T01:21:38.035Z,3.15
2018-08-28T01:24:08.237Z,3.15
2018-08-28T01:26:36.918Z,3.45
2018-08-28T01:29:05.557Z,3.83
2018-08-28T01:31:34.246Z,3.50
2018-08-28T01:34:03.540Z,3.45
2018-08-28T01:36:32.181Z,3.60
2018-08-28T01:39:01.896Z,3.85
2018-08-28T01:41:30.533Z,3.00
2018-08-28T01:43:59.842Z,3.12
2018-08-28T01:46:29.168Z,3.70
2018-08-28T01:48:58.121Z,4.03
2018-08-28T01:51:26.758Z,3.17
2018-08-28T01:53:55.398Z,3.20
2018-08-28T01:56:24.077Z,3.52
2018-08-28T01:58:53.192Z,3.22
2018-08-28T02:01:22.582Z,2.95
2018-08-28T02:03:53.138Z,3.52
2018-08-28T02:06:21.684Z,3.37
2018-08-28T02:08:50.583Z,3.60
2018-08-28T02:11:19.845Z,3.52
2018-08-28T02:13:49.502Z,3.58
2018-08-28T02:16:18.375Z,3.20
2018-08-28T02:18:47.568Z,3.55
2018-08-28T02:21:16.238Z,3.47
2018-08-28T02:23:45.569Z,3.50
2018-08-28T02:26:14.335Z,3.55
2018-08-28T02:28:43.801Z,3.35
2018-08-28T02:31:13.274Z,3.42
2018-08-28T02:33:43.354Z,3.00
2018-08-28T02:36:12.183Z,3.60
2018-08-28T02:38:41.776Z,3.25
2018-08-28T02:41:11.227Z,4.22
2018-08-28T02:43:40.063Z,3.33
2018-08-28T02:46:09.509Z,3.40
2018-08-28T02:48:38.463Z,3.95
2018-08-28T02:51:07.577Z,3.90
2018-08-28T02:53:36.382Z,3.77
2018-08-28T02:56:05.829Z,3.83
2018-08-28T02:58:35.233Z,3.60
2018-08-28T03:01:04.003Z,3.42
2018-08-28T03:03:33.398Z,3.62
2018-08-28T03:06:02.525Z,3.35
2018-08-28T03:08:32.046Z,3.47
2018-08-28T03:11:01.146Z,3.87
2018-08-28T03:13:30.016Z,3.77
2018-08-28T03:15:59.265Z,3.58
2018-08-28T03:18:27.975Z,3.25
2018-08-28T03:20:57.160Z,3.92
2018-08-28T03:23:25.955Z,3.47
2018-08-28T03:25:55.234Z,3.80
2018-08-28T03:28:23.867Z,3.62
2018-08-28T03:30:53.239Z,3.33
2018-08-28T03:33:21.850Z,3.50
2018-08-28T03:35:50.973Z,3.60
2018-08-28T03:38:19.815Z,3.47
2018-08-28T03:40:48.751Z,3.40
2018-08-28T03:43:18.302Z,3.42
2018-08-28T03:45:47.889Z,3.55
2018-08-28T03:48:17.283Z,3.83
2018-08-28T03:50:46.062Z,3.50
2018-08-28T03:53:14.901Z,3.33
2018-08-28T03:55:44.459Z,3.35
2018-08-28T03:58:13.217Z,3.37
2018-08-28T04:00:43.076Z,3.20
2018-08-28T04:03:12.045Z,3.00
2018-08-28T04:05:41.638Z,3.72
2018-08-28T04:08:10.608Z,3.22
2018-08-28T04:10:39.926Z,3.42
2018-08-28T04:13:08.742Z,3.42
2018-08-28T04:15:37.464Z,3.55
2018-08-28T04:18:06.378Z,3.70
2018-08-28T04:20:35.547Z,3.10
2018-08-28T04:23:04.503Z,3.60
2018-08-28T04:25:33.586Z,3.35
2018-08-28T04:28:02.300Z,3.50
2018-08-28T04:30:31.817Z,3.20
2018-08-28T04:33:00.744Z,4.00
2018-08-28T04:35:30.077Z,3.90
2018-08-28T04:37:59.365Z,3.70
2018-08-28T04:40:28.336Z,3.55
2018-08-28T04:42:57.721Z,3.08
2018-08-28T04:45:26.797Z,3.60
2018-08-28T04:47:56.214Z,3.42
2018-08-28T04:50:25.637Z,3.80
2018-08-28T04:52:54.546Z,3.67
2018-08-28T04:55:23.985Z,4.25
2018-08-28T04:57:53.261Z,3.83
2018-08-28T05:00:22.191Z,4.33
2018-08-28T05:02:51.841Z,3.92
2018-08-28T05:05:21.377Z,5.00
2018-08-28T05:07:50.417Z,4.10
2018-08-28T05:10:20.170Z,4.37
2018-08-28T05:12:49.650Z,4.12
2018-08-28T05:15:18.624Z,4.03
2018-08-28T05:17:48.188Z,4.20
2018-08-28T05:20:17.646Z,4.08
2018-08-28T05:22:46.725Z,3.92
2018-08-28T05:25:16.521Z,4.12
2018-08-28T05:27:46.221Z,4.08
2018-08-28T05:30:15.567Z,4.20
2018-08-28T05:32:44.314Z,3.50
2018-08-28T05:35:14.220Z,3.90
2018-08-28T05:37:43.706Z,4.00
2018-08-28T05:40:12.728Z,4.47
2018-08-28T05:42:42.519Z,4.17
2018-08-28T05:45:12.017Z,3.95
2018-08-28T05:47:41.543Z,4.00
2018-08-28T05:50:10.441Z,3.45
2018-08-28T05:52:40.135Z,3.85
2018-08-28T05:55:09.621Z,4.15
2018-08-28T05:57:38.577Z,3.95
2018-08-28T06:00:08.073Z,3.67
2018-08-28T06:02:37.438Z,4.35
2018-08-28T06:05:06.539Z,4.10
2018-08-28T06:07:36.001Z,4.12
2018-08-28T06:10:05.481Z,3.55
2018-08-28T06:12:34.545Z,4.00
2018-08-28T06:15:04.569Z,4.40
2018-08-28T06:17:34.426Z,4.20
2018-08-28T06:20:03.759Z,3.95
2018-08-28T06:22:32.480Z,3.90
2018-08-28T06:25:01.516Z,3.83
2018-08-28T06:27:30.037Z,3.90
2018-08-28T06:29:59.436Z,3.83
2018-08-28T06:32:29.012Z,3.50
2018-08-28T06:34:57.705Z,3.80
2018-08-28T06:37:27.669Z,4.50
2018-08-28T06:39:56.708Z,4.50
2018-08-28T06:42:26.549Z,4.03
2018-08-28T06:44:55.548Z,4.60
2018-08-28T06:47:24.289Z,4.35
2018-08-28T06:49:53.704Z,4.95
2018-08-28T06:52:22.730Z,4.85
2018-08-28T06:54:51.570Z,4.55
2018-08-28T06:57:20.426Z,4.10
2018-08-28T06:59:50.204Z,4.28
2018-08-28T07:02:19.519Z,4.90
2018-08-28T07:04:48.542Z,4.70
2018-08-28T07:07:17.961Z,3.95
2018-08-28T07:09:47.283Z,4.58
2018-08-28T07:12:16.343Z,4.65
2018-08-28T07:14:45.459Z,4.12
2018-08-28T07:17:14.040Z,4.08
2018-08-28T07:19:43.335Z,4.55
2018-08-28T07:22:12.060Z,4.20
2018-08-28T07:24:41.462Z,4.60
2018-08-28T07:27:10.537Z,4.55
2018-08-28T07:29:39.951Z,4.53
2018-08-28T07:32:09.380Z,4.35
2018-08-28T07:34:39.258Z,4.30
2018-08-28T07:37:08.696Z,4.75
2018-08-28T07:39:38.162Z,4.30
2018-08-28T07:42:07.636Z,3.58
2018-08-28T07:44:36.403Z,4.90
2018-08-28T07:47:05.719Z,4.40
2018-08-28T07:49:34.639Z,4.12
2018-08-28T07:52:04.217Z,4.47
2018-08-28T07:54:33.690Z,4.75
2018-08-28T07:57:02.725Z,4.80
2018-08-28T07:59:32.317Z,4.92
2018-08-28T08:02:01.871Z,4.53
2018-08-28T08:04:31.431Z,5.67
2018-08-28T08:07:00.305Z,5.05
2018-08-28T08:09:29.267Z,4.42
2018-08-28T08:11:58.277Z,4.53
2018-08-28T08:14:27.929Z,5.10
2018-08-28T08:16:57.876Z,4.60
2018-08-28T08:19:27.334Z,5.08
2018-08-28T08:21:56.528Z,4.70
2018-08-28T08:24:26.257Z,5.72
2018-08-28T08:26:54.991Z,4.70
2018-08-28T08:29:24.378Z,4.10
2018-08-28T08:31:53.970Z,4.78
2018-08-28T08:34:23.341Z,5.42
2018-08-28T08:36:52.266Z,4.20
2018-08-28T08:39:21.736Z,4.50
2018-08-28T08:41:50.868Z,4.60
2018-08-28T08:44:20.054Z,4.53
2018-08-28T08:46:49.454Z,4.42
2018-08-28T08:49:18.869Z,4.37
2018-08-28T08:51:49.120Z,4.37
2018-08-28T08:54:18.245Z,4.65
2018-08-28T08:56:47.974Z,4.25
2018-08-28T08:59:17.548Z,4.20
2018-08-28T09:01:46.248Z,4.17
2018-08-28T09:04:15.607Z,3.98
2018-08-28T09:06:44.484Z,4.22
2018-08-28T09:09:13.843Z,4.25
2018-08-28T09:11:43.441Z,4.78
2018-08-28T09:14:12.391Z,5.28
2018-08-28T09:16:41.886Z,5.15
2018-08-28T09:19:11.964Z,4.87
2018-08-28T09:21:41.463Z,4.83
2018-08-28T09:24:10.433Z,5.30
2018-08-28T09:26:40.033Z,5.12
2018-08-28T09:29:09.289Z,4.92
2018-08-28T09:31:38.537Z,4.95
2018-08-28T09:34:08.291Z,5.25
2018-08-28T09:36:37.629Z,5.60
2018-08-28T09:39:07.477Z,5.12
2018-08-28T09:41:36.416Z,6.50
2018-08-28T09:44:06.105Z,4.75
2018-08-28T09:46:35.598Z,5.30
2018-08-28T09:49:04.744Z,5.05
2018-08-28T09:51:34.183Z,4.80
2018-08-28T09:54:03.528Z,4.95
2018-08-28T09:56:32.428Z,5.22
2018-08-28T09:59:02.150Z,5.35
2018-08-28T10:01:36.834Z,5.30
2018-08-28T10:04:06.423Z,6.25
2018-08-28T10:06:35.968Z,5.67
2018-08-28T10:09:07.015Z,5.90
2018-08-28T10:11:36.364Z,5.05
2018-08-28T10:14:05.113Z,5.87
2018-08-28T10:16:34.342Z,5.47
2018-08-28T10:19:04.267Z,5.40
2018-08-28T10:21:33.879Z,5.03
2018-08-28T10:24:03.367Z,5.37
2018-08-28T10:26:32.119Z,5.87
2018-08-28T10:29:01.607Z,6.15
2018-08-28T10:31:30.633Z,5.75
2018-08-28T10:33:59.924Z,5.12
2018-08-28T10:36:29.335Z,5.72
2018-08-28T10:38:58.326Z,6.15
2018-08-28T10:41:28.420Z,6.08
2018-08-28T10:43:58.022Z,5.65
2018-08-28T10:46:27.987Z,6.03
2018-08-28T10:48:58.058Z,5.35
2018-08-28T10:51:26.848Z,6.00
2018-08-28T10:53:56.419Z,5.53
2018-08-28T10:56:25.862Z,5.97
2018-08-28T10:58:55.235Z,6.67
2018-08-28T11:01:24.370Z,6.87
2018-08-28T11:03:53.982Z,6.62
2018-08-28T11:06:23.201Z,5.17
2018-08-28T11:08:52.377Z,5.70
2018-08-28T11:11:21.913Z,5.85
2018-08-28T11:13:51.790Z,6.15
2018-08-28T11:16:21.867Z,5.72
2018-08-28T11:18:50.677Z,5.70
2018-08-28T11:21:20.240Z,6.10
2018-08-28T11:23:49.650Z,5.45
2018-08-28T11:26:18.481Z,7.60
2018-08-28T11:28:47.401Z,5.97
2018-08-28T11:31:16.068Z,6.20
2018-08-28T11:33:45.524Z,5.85
2018-08-28T11:36:14.177Z,5.70
2018-08-28T11:38:43.320Z,6.22
2018-08-28T11:41:12.726Z,5.35
2018-08-28T11:43:42.480Z,6.47
2018-08-28T11:46:12.306Z,6.70
2018-08-28T11:48:42.678Z,5.53
2018-08-28T11:51:11.582Z,6.00
2018-08-28T11:53:40.265Z,5.80
2018-08-28T11:56:09.789Z,5.20
2018-08-28T11:58:38.777Z,6.40
2018-08-28T12:01:08.599Z,5.90
2018-08-28T12:03:38.307Z,6.40
2018-08-28T12:06:07.700Z,6.50
2018-08-28T12:08:36.436Z,6.28
2018-08-28T12:11:05.465Z,6.58
2018-08-28T12:13:34.381Z,6.87
2018-08-28T12:16:04.212Z,6.28
2018-08-28T12:18:33.908Z,6.58
2018-08-28T12:21:03.488Z,6.00
2018-08-28T12:23:32.340Z,6.28
2018-08-28T12:26:01.158Z,5.97
2018-08-28T12:28:29.944Z,6.37
2018-08-28T12:30:58.737Z,6.67
2018-08-28T12:33:28.341Z,6.40
2018-08-28T12:35:57.445Z,6.30
2018-08-28T12:38:27.141Z,6.42
2018-08-28T12:40:56.338Z,6.08
2018-08-28T12:43:26.245Z,7.05
2018-08-28T12:45:55.653Z,6.20
2018-08-28T12:48:24.577Z,5.95
2018-08-28T12:50:54.657Z,6.33
2018-08-28T12:53:24.602Z,6.00
2018-08-28T12:55:54.174Z,6.75
2018-08-28T12:58:23.784Z,6.37
2018-08-28T13:00:52.666Z,6.70
2018-08-28T13:03:22.478Z,6.50
2018-08-28T13:05:52.328Z,6.60
2018-08-28T13:08:21.771Z,6.92
2018-08-28T13:10:50.575Z,6.40
2018-08-28T13:13:19.466Z,6.87
2018-08-28T13:15:49.112Z,6.53
2018-08-28T13:18:19.234Z,6.40
2018-08-28T13:20:47.925Z,7.08
2018-08-28T13:23:16.654Z,7.53
2018-08-28T13:25:46.784Z,7.20
2018-08-28T13:28:16.099Z,6.70
2018-08-28T13:30:45.757Z,6.50
2018-08-28T13:33:14.603Z,7.37
2018-08-28T13:35:44.100Z,7.55
2018-08-28T13:38:13.526Z,7.60
2018-08-28T13:40:42.334Z,8.00
2018-08-28T13:43:11.685Z,6.37
2018-08-28T13:45:40.490Z,6.65
2018-08-28T13:48:09.951Z,7.10
2018-08-28T13:50:39.601Z,6.50
2018-08-28T13:53:08.590Z,5.70
2018-08-28T13:55:38.461Z,6.85
2018-08-28T13:58:08.047Z,6.12
2018-08-28T14:00:37.965Z,6.10
2018-08-28T14:03:10.411Z,5.90
2018-08-28T14:05:40.097Z,6.45
2018-08-28T14:08:10.448Z,6.28
2018-08-28T14:10:40.036Z,5.97
2018-08-28T14:13:09.596Z,6.08
2018-08-28T14:15:38.303Z,6.25
2018-08-28T14:18:08.278Z,5.85
2018-08-28T14:20:37.482Z,6.05
2018-08-28T14:23:06.447Z,5.72
2018-08-28T14:25:35.223Z,6.45
2018-08-28T14:28:04.080Z,6.25
2018-08-28T14:30:33.387Z,5.25
2018-08-28T14:33:02.253Z,6.40
2018-08-28T14:35:31.883Z,5.60
2018-08-28T14:38:01.318Z,5.50
2018-08-28T14:40:30.236Z,6.28
2018-08-28T14:42:59.992Z,5.60
2018-08-28T14:45:29.783Z,5.20
2018-08-28T14:47:58.459Z,6.47
2018-08-28T14:50:28.810Z,5.80
2018-08-28T14:52:58.166Z,5.70
2018-08-28T14:55:27.408Z,6.72
2018-08-28T14:57:56.319Z,5.65
2018-08-28T15:00:25.704Z,6.10
2018-08-28T15:02:54.513Z,5.70
2018-08-28T15:05:24.170Z,5.35
2018-08-28T15:07:53.721Z,6.10
2018-08-28T15:10:22.593Z,5.83
2018-08-28T15:12:52.051Z,5.80
2018-08-28T15:15:20.673Z,5.72
2018-08-28T15:17:50.319Z,5.10
2018-08-28T15:20:18.941Z,5.30
2018-08-28T15:22:48.839Z,5.60
2018-08-28T15:25:19.617Z,5.70
2018-08-28T15:27:49.452Z,5.83
2018-08-28T15:30:18.597Z,5.78
2018-08-28T15:32:48.352Z,5.87
2018-08-28T15:35:18.363Z,5.72
2018-08-28T15:37:46.990Z,5.67
2018-08-28T15:40:16.627Z,5.60
2018-08-28T15:42:45.837Z,5.45
2018-08-28T15:45:14.913Z,5.58
2018-08-28T15:47:44.373Z,5.20
2018-08-28T15:50:13.991Z,5.97
2018-08-28T15:52:44.014Z,5.50
2018-08-28T15:55:13.205Z,5.92
2018-08-28T15:57:42.164Z,5.35
2018-08-28T16:00:11.002Z,5.92
2018-08-28T16:02:40.431Z,5.37
2018-08-28T16:05:09.044Z,6.15
2018-08-28T16:07:37.795Z,5.83
2018-08-28T16:10:06.438Z,5.90
2018-08-28T16:12:35.206Z,5.70
2018-08-28T16:15:04.049Z,5.40
2018-08-28T16:17:33.766Z,5.78
2018-08-28T16:20:03.285Z,5.60
2018-08-28T16:22:38.115Z,6.17
2018-08-28T16:25:07.219Z,5.62
2018-08-28T16:27:36.555Z,5.85
2018-08-28T16:30:06.318Z,5.33
2018-08-28T16:32:35.802Z,5.78
2018-08-28T16:35:05.158Z,5.20
2018-08-28T16:37:34.810Z,5.90
2018-08-28T16:40:05.672Z,5.60
2018-08-28T16:42:34.575Z,6.05
2018-08-28T16:45:04.225Z,5.60
2018-08-28T16:47:33.105Z,6.33
2018-08-28T16:50:02.294Z,5.95
2018-08-28T16:52:31.946Z,5.70
2018-08-28T16:55:00.594Z,5.78
2018-08-28T16:57:29.900Z,5.95
2018-08-28T16:59:58.732Z,6.05
2018-08-28T17:02:27.541Z,6.25
2018-08-28T17:04:56.718Z,6.00
2018-08-28T17:07:26.123Z,6.12
2018-08-28T17:09:55.614Z,5.90
2018-08-28T17:12:24.509Z,6.70
2018-08-28T17:14:54.154Z,5.70
2018-08-28T17:17:23.740Z,5.83
2018-08-28T17:19:52.421Z,6.97
2018-08-28T17:22:21.125Z,7.67
2018-08-28T17:24:50.024Z,7.78
2018-08-28T17:27:19.982Z,6.05
2018-08-28T17:29:49.358Z,6.35
2018-08-28T17:32:18.303Z,6.65
2018-08-28T17:34:47.402Z,6.97
2018-08-28T17:37:16.298Z,6.62
2018-08-28T17:39:45.613Z,6.75
2018-08-28T17:42:14.451Z,6.20
2018-08-28T17:44:44.014Z,6.42
2018-08-28T17:47:14.054Z,5.95
2018-08-28T17:49:43.637Z,6.40
2018-08-28T17:52:13.006Z,6.45
2018-08-28T17:54:42.666Z,6.03
2018-08-28T17:57:13.034Z,6.83
2018-08-28T17:59:43.062Z,6.15
2018-08-28T18:02:12.812Z,6.20
2018-08-28T18:04:42.517Z,6.75
2018-08-28T18:07:12.442Z,6.72
2018-08-28T18:09:42.342Z,7.15
2018-08-28T18:12:11.547Z,6.60
2018-08-28T18:14:41.142Z,6.62
2018-08-28T18:17:11.405Z,6.85
2018-08-28T18:19:40.334Z,6.62
2018-08-28T18:22:09.720Z,6.97
2018-08-28T18:24:38.521Z,6.87
2018-08-28T18:27:07.907Z,6.90
2018-08-28T18:29:37.927Z,6.72
2018-08-28T18:32:08.534Z,6.65
2018-08-28T18:34:37.878Z,7.12
2018-08-28T18:37:06.677Z,6.92
2018-08-28T18:39:36.834Z,6.97
2018-08-28T18:42:06.148Z,6.42
2018-08-28T18:44:35.501Z,7.17
2018-08-28T18:47:04.418Z,6.53
2018-08-28T18:49:33.368Z,6.35
2018-08-28T18:52:02.162Z,6.50
2018-08-28T18:54:31.690Z,7.00
2018-08-28T18:57:00.330Z,7.40
2018-08-28T18:59:29.209Z,7.28
2018-08-28T19:01:57.912Z,7.47
2018-08-28T19:04:27.253Z,8.93
2018-08-28T19:06:55.996Z,8.65
2018-08-28T19:09:25.347Z,7.22
2018-08-28T19:11:54.056Z,8.83
2018-08-28T19:14:23.658Z,13.43
2018-08-28T19:16:52.385Z,11.55
2018-08-28T19:19:21.518Z,11.35
2018-08-28T19:21:50.269Z,10.90
2018-08-28T19:24:19.861Z,9.78
2018-08-28T19:26:49.134Z,8.78
2018-08-28T19:29:18.091Z,8.68
2018-08-28T19:31:47.119Z,9.18
2018-08-28T19:34:16.429Z,9.45
2018-08-28T19:36:45.842Z,9.68
2018-08-28T19:39:14.532Z,13.00
2018-08-28T19:41:43.881Z,8.73
2018-08-28T19:44:12.839Z,8.53
2018-08-28T19:46:41.519Z,8.33
2018-08-28T19:49:10.509Z,8.73
2018-08-28T19:51:39.895Z,8.85
2018-08-28T19:54:08.900Z,8.08
2018-08-28T19:56:38.452Z,7.67
2018-08-28T19:59:07.426Z,7.00
2018-08-28T20:01:37.004Z,7.72
2018-08-28T20:04:06.433Z,7.83
2018-08-28T20:06:36.083Z,7.25
2018-08-28T20:09:05.748Z,7.55
2018-08-28T20:11:34.569Z,7.87
2018-08-28T20:14:03.524Z,7.00
2018-08-28T20:16:32.156Z,7.95
2018-08-28T20:19:02.328Z,7.83
2018-08-28T20:21:32.055Z,8.35
2018-08-28T20:24:01.663Z,7.95
2018-08-28T20:26:30.280Z,7.60
2018-08-28T20:28:59.625Z,7.60
2018-08-28T20:31:28.405Z,7.85
2018-08-28T20:33:58.128Z,6.67
2018-08-28T20:36:27.741Z,7.87
2018-08-28T20:38:56.868Z,8.45
2018-08-28T20:41:26.677Z,8.80
2018-08-28T20:43:56.187Z,8.10
2018-08-28T20:46:25.727Z,8.23
2018-08-28T20:48:54.548Z,8.20
2018-08-28T20:51:24.321Z,9.03
2018-08-28T20:53:54.073Z,8.30
2018-08-28T20:56:24.241Z,8.80
2018-08-28T20:58:53.785Z,8.95
2018-08-28T21:01:22.502Z,9.18
2018-08-28T21:03:52.727Z,9.18
2018-08-28T21:06:21.707Z,9.18
2018-08-28T21:08:50.730Z,9.40
2018-08-28T21:11:19.552Z,10.00
2018-08-28T21:13:48.328Z,9.95
2018-08-28T21:16:17.404Z,9.95
2018-08-28T21:18:46.444Z,10.45
2018-08-28T21:21:15.699Z,10.32
2018-08-28T21:23:44.631Z,10.43
2018-08-28T21:26:14.305Z,10.72
2018-08-28T21:28:43.093Z,10.80
2018-08-28T21:31:11.758Z,11.10
2018-08-28T21:33:41.195Z,10.45
2018-08-28T21:36:10.646Z,10.25
2018-08-28T21:38:39.412Z,10.13
2018-08-28T21:41:08.279Z,10.70
2018-08-28T21:43:37.622Z,10.98
2018-08-28T21:46:06.850Z,10.15
2018-08-28T21:48:36.397Z,10.85
2018-08-28T21:51:05.944Z,10.13
2018-08-28T21:53:34.981Z,11.30
2018-08-28T21:56:04.507Z,10.53
2018-08-28T21:58:33.976Z,11.50
2018-08-28T22:01:08.732Z,11.08
2018-08-28T22:03:39.054Z,11.90
2018-08-28T22:06:12.621Z,10.75
2018-08-28T22:08:42.014Z,11.22
2018-08-28T22:11:10.813Z,10.70
2018-08-28T22:13:40.923Z,11.18
2018-08-28T22:16:11.279Z,11.90
2018-08-28T22:18:40.028Z,10.82
2018-08-28T22:21:09.001Z,10.45
2018-08-28T22:23:38.655Z,10.90
2018-08-28T22:26:08.318Z,10.00
2018-08-28T22:28:41.579Z,9.18
2018-08-28T22:31:14.580Z,9.40
2018-08-28T22:33:44.841Z,10.32
2018-08-28T22:36:14.981Z,9.70
2018-08-28T22:38:44.555Z,8.83
2018-08-28T22:41:14.255Z,8.28
2018-08-28T22:43:44.097Z,9.30
2018-08-28T22:46:13.833Z,10.63
2018-08-28T22:48:42.686Z,8.63
2018-08-28T22:51:12.132Z,8.63
2018-08-28T22:53:42.837Z,9.30
2018-08-28T22:56:12.121Z,9.18
2018-08-28T22:58:41.614Z,8.28
2018-08-28T23:01:10.473Z,8.45
2018-08-28T23:03:39.979Z,8.55
2018-08-28T23:06:09.148Z,9.08
2018-08-28T23:08:38.722Z,9.08
2018-08-28T23:11:08.089Z,9.35
2018-08-28T23:13:37.909Z,8.80
2018-08-28T23:16:07.491Z,8.53
2018-08-28T23:18:36.479Z,9.30
2018-08-28T23:21:06.176Z,8.63
2018-08-28T23:23:35.762Z,8.88
2018-08-28T23:26:05.121Z,9.23
2018-08-28T23:28:34.001Z,8.15
2018-08-28T23:31:02.849Z,8.55
2018-08-28T23:33:32.429Z,8.13
2018-08-28T23:36:02.050Z,8.45
2018-08-28T23:38:31.490Z,8.25
2018-08-28T23:41:00.375Z,9.00
2018-08-28T23:43:29.829Z,9.40
2018-08-28T23:45:58.756Z,8.63
2018-08-28T23:48:28.208Z,8.33
2018-08-28T23:50:57.960Z,8.48
2018-08-28T23:53:26.742Z,8.53
2018-08-28T23:55:56.196Z,8.98
2018-08-28T23:58:25.984Z,9.35
